sensor_id;sensor_type;location;lat;lon;timestamp;temperature;humidity
43673;DHT22;41723;49.326;8.430;2023-03-01T00:00:46;1.90;97.90
43673;DHT22;41723;49.326;8.430;2023-03-01T00:03:12;1.90;98.00
43673;DHT22;41723;49.326;8.430;2023-03-01T00:05:43;1.90;97.90
43673;DHT22;41723;49.326;8.430;2023-03-01T00:08:08;1.90;97.70
43673;DHT22;41723;49.326;8.430;2023-03-01T00:10:34;2.00;97.60
43673;DHT22;41723;49.326;8.430;2023-03-01T00:12:59;2.10;97.50
43673;DHT22;41723;49.326;8.430;2023-03-01T00:15:25;2.10;97.40
43673;DHT22;41723;49.326;8.430;2023-03-01T00:17:51;2.00;97.50
43673;DHT22;41723;49.326;8.430;2023-03-01T00:20:16;2.00;97.60
43673;DHT22;41723;49.326;8.430;2023-03-01T00:22:42;2.00;97.80
43673;DHT22;41723;49.326;8.430;2023-03-01T00:25:07;2.00;97.80
43673;DHT22;41723;49.326;8.430;2023-03-01T00:27:33;2.00;97.80
43673;DHT22;41723;49.326;8.430;2023-03-01T00:29:58;1.90;97.90
43673;DHT22;41723;49.326;8.430;2023-03-01T00:32:24;2.00;98.00
43673;DHT22;41723;49.326;8.430;2023-03-01T00:34:50;2.10;97.90
43673;DHT22;41723;49.326;8.430;2023-03-01T00:37:20;2.10;97.90
43673;DHT22;41723;49.326;8.430;2023-03-01T00:39:46;2.10;97.90
43673;DHT22;41723;49.326;8.430;2023-03-01T00:42:11;2.10;97.70
43673;DHT22;41723;49.326;8.430;2023-03-01T00:44:37;2.10;97.70
43673;DHT22;41723;49.326;8.430;2023-03-01T00:47:03;2.00;98.10
43673;DHT22;41723;49.326;8.430;2023-03-01T00:49:30;1.90;98.30
43673;DHT22;41723;49.326;8.430;2023-03-01T00:51:56;1.90;98.60
43673;DHT22;41723;49.326;8.430;2023-03-01T00:54:22;1.70;98.80
43673;DHT22;41723;49.326;8.430;2023-03-01T00:56:48;1.70;99.00
43673;DHT22;41723;49.326;8.430;2023-03-01T00:59:14;1.70;99.00
43673;DHT22;41723;49.326;8.430;2023-03-01T01:01:39;1.70;98.90
43673;DHT22;41723;49.326;8.430;2023-03-01T01:04:06;1.70;98.90
43673;DHT22;41723;49.326;8.430;2023-03-01T01:06:34;1.60;99.10
43673;DHT22;41723;49.326;8.430;2023-03-01T01:09:00;1.60;99.20
43673;DHT22;41723;49.326;8.430;2023-03-01T01:11:27;1.50;99.30
43673;DHT22;41723;49.326;8.430;2023-03-01T01:13:53;1.50;99.20
43673;DHT22;41723;49.326;8.430;2023-03-01T01:16:19;1.60;99.40
43673;DHT22;41723;49.326;8.430;2023-03-01T01:18:45;1.50;99.90
43673;DHT22;41723;49.326;8.430;2023-03-01T01:21:14;1.50;99.70
43673;DHT22;41723;49.326;8.430;2023-03-01T01:23:40;1.60;99.90
43673;DHT22;41723;49.326;8.430;2023-03-01T01:26:07;1.60;99.50
43673;DHT22;41723;49.326;8.430;2023-03-01T01:28:33;1.70;99.50
43673;DHT22;41723;49.326;8.430;2023-03-01T01:30:59;1.70;99.60
43673;DHT22;41723;49.326;8.430;2023-03-01T01:33:25;1.60;99.10
43673;DHT22;41723;49.326;8.430;2023-03-01T01:35:50;1.50;99.20
43673;DHT22;41723;49.326;8.430;2023-03-01T01:38:16;1.40;99.50
43673;DHT22;41723;49.326;8.430;2023-03-01T01:40:45;1.40;99.60
43673;DHT22;41723;49.326;8.430;2023-03-01T01:43:22;1.30;99.90
43673;DHT22;41723;49.326;8.430;2023-03-01T01:45:48;1.20;99.90
43673;DHT22;41723;49.326;8.430;2023-03-01T01:48:15;1.30;99.90
43673;DHT22;41723;49.326;8.430;2023-03-01T01:50:42;1.40;99.80
43673;DHT22;41723;49.326;8.430;2023-03-01T01:53:12;1.40;99.90
43673;DHT22;41723;49.326;8.430;2023-03-01T01:55:39;1.40;99.90
43673;DHT22;41723;49.326;8.430;2023-03-01T01:58:06;1.40;99.80
43673;DHT22;41723;49.326;8.430;2023-03-01T02:00:34;1.50;99.80
43673;DHT22;41723;49.326;8.430;2023-03-01T02:03:04;1.70;99.80
43673;DHT22;41723;49.326;8.430;2023-03-01T02:05:46;1.80;99.10
43673;DHT22;41723;49.326;8.430;2023-03-01T02:08:13;1.60;99.50
43673;DHT22;41723;49.326;8.430;2023-03-01T02:10:40;1.50;99.60
43673;DHT22;41723;49.326;8.430;2023-03-01T02:13:06;1.60;99.40
43673;DHT22;41723;49.326;8.430;2023-03-01T02:15:33;1.70;99.40
43673;DHT22;41723;49.326;8.430;2023-03-01T02:17:58;2.00;99.10
43673;DHT22;41723;49.326;8.430;2023-03-01T02:23:08;2.10;98.90
43673;DHT22;41723;49.326;8.430;2023-03-01T02:30:48;1.90;99.10
43673;DHT22;41723;49.326;8.430;2023-03-01T02:33:34;2.00;98.80
43673;DHT22;41723;49.326;8.430;2023-03-01T02:36:03;2.10;98.70
43673;DHT22;41723;49.326;8.430;2023-03-01T02:38:29;2.10;98.70
43673;DHT22;41723;49.326;8.430;2023-03-01T02:40:55;2.10;98.50
43673;DHT22;41723;49.326;8.430;2023-03-01T02:43:22;1.90;99.00
43673;DHT22;41723;49.326;8.430;2023-03-01T02:45:52;1.70;99.20
43673;DHT22;41723;49.326;8.430;2023-03-01T02:48:18;1.60;99.20
43673;DHT22;41723;49.326;8.430;2023-03-01T02:53:21;1.10;99.90
43673;DHT22;41723;49.326;8.430;2023-03-01T02:55:50;0.90;99.90
43673;DHT22;41723;49.326;8.430;2023-03-01T02:58:16;0.90;99.90
43673;DHT22;41723;49.326;8.430;2023-03-01T03:00:42;0.90;99.90
43673;DHT22;41723;49.326;8.430;2023-03-01T03:03:13;0.90;99.90
43673;DHT22;41723;49.326;8.430;2023-03-01T03:05:39;0.80;99.90
43673;DHT22;41723;49.326;8.430;2023-03-01T03:08:05;0.80;99.90
43673;DHT22;41723;49.326;8.430;2023-03-01T03:10:37;0.90;99.90
43673;DHT22;41723;49.326;8.430;2023-03-01T03:13:09;1.10;99.90
43673;DHT22;41723;49.326;8.430;2023-03-01T03:15:35;1.00;99.90
43673;DHT22;41723;49.326;8.430;2023-03-01T03:18:05;0.90;99.90
43673;DHT22;41723;49.326;8.430;2023-03-01T03:20:31;0.90;99.90
43673;DHT22;41723;49.326;8.430;2023-03-01T03:22:57;1.00;99.90
43673;DHT22;41723;49.326;8.430;2023-03-01T03:25:23;1.00;99.90
43673;DHT22;41723;49.326;8.430;2023-03-01T03:27:50;0.90;99.90
43673;DHT22;41723;49.326;8.430;2023-03-01T03:30:22;0.90;99.90
43673;DHT22;41723;49.326;8.430;2023-03-01T03:32:48;0.80;99.90
43673;DHT22;41723;49.326;8.430;2023-03-01T03:37:45;0.70;99.90
43673;DHT22;41723;49.326;8.430;2023-03-01T03:40:30;0.80;99.90
43673;DHT22;41723;49.326;8.430;2023-03-01T03:42:56;0.80;99.90
43673;DHT22;41723;49.326;8.430;2023-03-01T03:45:21;0.70;99.90
43673;DHT22;41723;49.326;8.430;2023-03-01T03:47:47;0.60;99.90
43673;DHT22;41723;49.326;8.430;2023-03-01T03:50:14;0.50;99.90
43673;DHT22;41723;49.326;8.430;2023-03-01T03:52:40;0.50;99.90
43673;DHT22;41723;49.326;8.430;2023-03-01T03:55:06;0.60;99.90
43673;DHT22;41723;49.326;8.430;2023-03-01T03:57:36;0.50;99.90
43673;DHT22;41723;49.326;8.430;2023-03-01T04:00:02;0.50;99.90
43673;DHT22;41723;49.326;8.430;2023-03-01T04:02:44;0.50;99.90
43673;DHT22;41723;49.326;8.430;2023-03-01T04:05:11;0.50;99.90
43673;DHT22;41723;49.326;8.430;2023-03-01T04:07:37;0.40;99.90
43673;DHT22;41723;49.326;8.430;2023-03-01T04:10:03;0.30;99.90
43673;DHT22;41723;49.326;8.430;2023-03-01T04:12:29;0.40;99.90
43673;DHT22;41723;49.326;8.430;2023-03-01T04:14:55;0.40;99.90
43673;DHT22;41723;49.326;8.430;2023-03-01T04:17:20;0.40;99.90
43673;DHT22;41723;49.326;8.430;2023-03-01T04:19:46;0.50;99.90
43673;DHT22;41723;49.326;8.430;2023-03-01T04:22:14;0.50;99.90
43673;DHT22;41723;49.326;8.430;2023-03-01T04:24:42;0.40;99.90
43673;DHT22;41723;49.326;8.430;2023-03-01T04:27:08;0.40;99.90
43673;DHT22;41723;49.326;8.430;2023-03-01T04:29:34;0.40;99.90
43673;DHT22;41723;49.326;8.430;2023-03-01T04:32:00;0.40;99.90
43673;DHT22;41723;49.326;8.430;2023-03-01T04:34:25;0.30;99.90
43673;DHT22;41723;49.326;8.430;2023-03-01T04:36:52;0.50;99.90
43673;DHT22;41723;49.326;8.430;2023-03-01T04:39:18;0.60;99.90
43673;DHT22;41723;49.326;8.430;2023-03-01T04:41:43;0.90;99.90
43673;DHT22;41723;49.326;8.430;2023-03-01T04:44:09;0.90;99.90
43673;DHT22;41723;49.326;8.430;2023-03-01T04:46:35;0.80;99.90
43673;DHT22;41723;49.326;8.430;2023-03-01T04:49:01;0.60;99.90
43673;DHT22;41723;49.326;8.430;2023-03-01T04:51:26;0.50;99.90
43673;DHT22;41723;49.326;8.430;2023-03-01T04:53:52;0.50;99.90
43673;DHT22;41723;49.326;8.430;2023-03-01T04:56:18;0.50;99.90
43673;DHT22;41723;49.326;8.430;2023-03-01T04:58:44;0.50;99.90
43673;DHT22;41723;49.326;8.430;2023-03-01T05:01:11;0.50;99.90
43673;DHT22;41723;49.326;8.430;2023-03-01T05:03:44;0.40;99.90
43673;DHT22;41723;49.326;8.430;2023-03-01T05:06:09;0.40;99.90
43673;DHT22;41723;49.326;8.430;2023-03-01T05:08:36;0.50;99.90
43673;DHT22;41723;49.326;8.430;2023-03-01T05:11:02;0.50;99.90
43673;DHT22;41723;49.326;8.430;2023-03-01T05:13:35;0.60;99.90
43673;DHT22;41723;49.326;8.430;2023-03-01T05:16:24;0.50;99.90
43673;DHT22;41723;49.326;8.430;2023-03-01T05:19:16;0.50;99.90
43673;DHT22;41723;49.326;8.430;2023-03-01T05:21:42;0.50;99.90
43673;DHT22;41723;49.326;8.430;2023-03-01T05:24:26;0.50;99.90
43673;DHT22;41723;49.326;8.430;2023-03-01T05:26:52;0.50;99.90
43673;DHT22;41723;49.326;8.430;2023-03-01T05:29:19;0.60;99.90
43673;DHT22;41723;49.326;8.430;2023-03-01T05:31:53;0.50;99.90
43673;DHT22;41723;49.326;8.430;2023-03-01T05:34:23;0.60;99.90
43673;DHT22;41723;49.326;8.430;2023-03-01T05:36:48;0.40;99.90
43673;DHT22;41723;49.326;8.430;2023-03-01T05:39:21;0.40;99.90
43673;DHT22;41723;49.326;8.430;2023-03-01T05:41:58;0.60;99.90
43673;DHT22;41723;49.326;8.430;2023-03-01T05:44:24;0.50;99.90
43673;DHT22;41723;49.326;8.430;2023-03-01T05:46:50;0.50;99.90
43673;DHT22;41723;49.326;8.430;2023-03-01T05:49:16;0.50;99.90
43673;DHT22;41723;49.326;8.430;2023-03-01T05:51:42;0.50;99.90
43673;DHT22;41723;49.326;8.430;2023-03-01T05:54:08;0.60;99.90
43673;DHT22;41723;49.326;8.430;2023-03-01T05:56:35;0.50;99.90
43673;DHT22;41723;49.326;8.430;2023-03-01T05:59:01;0.70;99.90
43673;DHT22;41723;49.326;8.430;2023-03-01T06:01:26;0.60;99.90
43673;DHT22;41723;49.326;8.430;2023-03-01T06:03:52;0.70;99.90
43673;DHT22;41723;49.326;8.430;2023-03-01T06:06:18;0.70;99.90
43673;DHT22;41723;49.326;8.430;2023-03-01T06:08:43;0.60;99.90
43673;DHT22;41723;49.326;8.430;2023-03-01T06:11:09;0.60;99.90
43673;DHT22;41723;49.326;8.430;2023-03-01T06:13:35;0.70;99.90
43673;DHT22;41723;49.326;8.430;2023-03-01T06:16:00;0.60;99.90
43673;DHT22;41723;49.326;8.430;2023-03-01T06:18:26;0.60;99.90
43673;DHT22;41723;49.326;8.430;2023-03-01T06:20:54;0.50;99.90
43673;DHT22;41723;49.326;8.430;2023-03-01T06:23:20;0.50;99.90
43673;DHT22;41723;49.326;8.430;2023-03-01T06:25:46;0.50;99.90
43673;DHT22;41723;49.326;8.430;2023-03-01T06:28:12;0.50;99.90
43673;DHT22;41723;49.326;8.430;2023-03-01T06:30:37;0.60;99.90
43673;DHT22;41723;49.326;8.430;2023-03-01T06:33:03;0.70;99.90
43673;DHT22;41723;49.326;8.430;2023-03-01T06:35:29;0.80;99.90
43673;DHT22;41723;49.326;8.430;2023-03-01T06:37:55;0.70;99.90
43673;DHT22;41723;49.326;8.430;2023-03-01T06:40:20;0.70;99.90
43673;DHT22;41723;49.326;8.430;2023-03-01T06:42:47;0.70;99.90
43673;DHT22;41723;49.326;8.430;2023-03-01T06:45:14;0.70;99.90
43673;DHT22;41723;49.326;8.430;2023-03-01T06:47:39;0.70;99.90
43673;DHT22;41723;49.326;8.430;2023-03-01T06:50:05;0.80;99.90
43673;DHT22;41723;49.326;8.430;2023-03-01T06:52:31;0.80;99.90
43673;DHT22;41723;49.326;8.430;2023-03-01T06:54:57;0.90;99.90
43673;DHT22;41723;49.326;8.430;2023-03-01T06:57:22;0.90;99.90
43673;DHT22;41723;49.326;8.430;2023-03-01T06:59:48;0.90;99.90
43673;DHT22;41723;49.326;8.430;2023-03-01T07:02:14;1.00;99.90
43673;DHT22;41723;49.326;8.430;2023-03-01T07:04:40;1.00;99.90
43673;DHT22;41723;49.326;8.430;2023-03-01T07:07:06;0.90;99.90
43673;DHT22;41723;49.326;8.430;2023-03-01T07:09:31;1.00;99.90
43673;DHT22;41723;49.326;8.430;2023-03-01T07:11:57;0.90;99.90
43673;DHT22;41723;49.326;8.430;2023-03-01T07:14:23;1.00;99.90
43673;DHT22;41723;49.326;8.430;2023-03-01T07:16:54;1.10;99.90
43673;DHT22;41723;49.326;8.430;2023-03-01T07:19:20;1.10;99.90
43673;DHT22;41723;49.326;8.430;2023-03-01T07:21:46;1.20;99.90
43673;DHT22;41723;49.326;8.430;2023-03-01T07:24:12;1.30;99.90
43673;DHT22;41723;49.326;8.430;2023-03-01T07:26:38;1.30;99.90
43673;DHT22;41723;49.326;8.430;2023-03-01T07:29:04;1.40;99.90
43673;DHT22;41723;49.326;8.430;2023-03-01T07:31:30;1.40;99.90
43673;DHT22;41723;49.326;8.430;2023-03-01T07:33:56;1.50;99.90
43673;DHT22;41723;49.326;8.430;2023-03-01T07:36:21;1.50;99.90
43673;DHT22;41723;49.326;8.430;2023-03-01T07:38:47;1.60;99.90
43673;DHT22;41723;49.326;8.430;2023-03-01T07:41:13;1.70;99.90
43673;DHT22;41723;49.326;8.430;2023-03-01T07:43:38;1.90;99.90
43673;DHT22;41723;49.326;8.430;2023-03-01T07:46:04;2.60;99.90
43673;DHT22;41723;49.326;8.430;2023-03-01T07:48:30;2.20;99.90
43673;DHT22;41723;49.326;8.430;2023-03-01T07:51:03;2.10;99.90
43673;DHT22;41723;49.326;8.430;2023-03-01T07:53:29;2.10;99.90
43673;DHT22;41723;49.326;8.430;2023-03-01T07:56:03;2.10;99.90
43673;DHT22;41723;49.326;8.430;2023-03-01T07:58:29;2.10;99.90
43673;DHT22;41723;49.326;8.430;2023-03-01T08:00:55;2.30;99.50
43673;DHT22;41723;49.326;8.430;2023-03-01T08:03:20;2.30;99.80
43673;DHT22;41723;49.326;8.430;2023-03-01T08:05:46;2.30;99.50
43673;DHT22;41723;49.326;8.430;2023-03-01T08:08:11;2.40;99.00
43673;DHT22;41723;49.326;8.430;2023-03-01T08:10:37;2.40;98.90
43673;DHT22;41723;49.326;8.430;2023-03-01T08:13:02;2.30;99.10
43673;DHT22;41723;49.326;8.430;2023-03-01T08:15:28;2.40;98.80
43673;DHT22;41723;49.326;8.430;2023-03-01T08:17:53;2.30;98.90
43673;DHT22;41723;49.326;8.430;2023-03-01T08:20:19;2.50;98.80
43673;DHT22;41723;49.326;8.430;2023-03-01T08:22:45;2.60;99.00
43673;DHT22;41723;49.326;8.430;2023-03-01T08:25:10;2.80;98.60
43673;DHT22;41723;49.326;8.430;2023-03-01T08:27:36;2.90;97.70
43673;DHT22;41723;49.326;8.430;2023-03-01T08:30:02;2.90;97.70
43673;DHT22;41723;49.326;8.430;2023-03-01T08:32:27;2.80;97.60
43673;DHT22;41723;49.326;8.430;2023-03-01T08:34:53;2.80;97.60
43673;DHT22;41723;49.326;8.430;2023-03-01T08:37:18;2.90;97.80
43673;DHT22;41723;49.326;8.430;2023-03-01T08:39:44;3.00;97.60
43673;DHT22;41723;49.326;8.430;2023-03-01T08:42:09;3.00;97.10
43673;DHT22;41723;49.326;8.430;2023-03-01T08:44:35;3.00;97.50
43673;DHT22;41723;49.326;8.430;2023-03-01T08:47:00;3.20;97.20
43673;DHT22;41723;49.326;8.430;2023-03-01T08:49:27;3.20;97.20
43673;DHT22;41723;49.326;8.430;2023-03-01T08:51:53;3.20;97.30
43673;DHT22;41723;49.326;8.430;2023-03-01T08:54:20;3.20;97.50
43673;DHT22;41723;49.326;8.430;2023-03-01T08:56:46;3.30;97.40
43673;DHT22;41723;49.326;8.430;2023-03-01T08:59:12;3.50;97.20
43673;DHT22;41723;49.326;8.430;2023-03-01T09:01:38;3.50;96.30
43673;DHT22;41723;49.326;8.430;2023-03-01T09:04:05;3.50;95.90
43673;DHT22;41723;49.326;8.430;2023-03-01T09:06:32;3.60;96.20
43673;DHT22;41723;49.326;8.430;2023-03-01T09:08:58;3.50;96.70
43673;DHT22;41723;49.326;8.430;2023-03-01T09:11:24;3.60;96.00
43673;DHT22;41723;49.326;8.430;2023-03-01T09:13:49;3.70;95.80
43673;DHT22;41723;49.326;8.430;2023-03-01T09:16:16;3.80;95.50
43673;DHT22;41723;49.326;8.430;2023-03-01T09:18:43;3.80;95.30
43673;DHT22;41723;49.326;8.430;2023-03-01T09:21:13;3.90;95.90
43673;DHT22;41723;49.326;8.430;2023-03-01T09:23:42;3.90;95.50
43673;DHT22;41723;49.326;8.430;2023-03-01T09:26:09;3.80;95.30
43673;DHT22;41723;49.326;8.430;2023-03-01T09:28:36;3.90;95.40
43673;DHT22;41723;49.326;8.430;2023-03-01T09:31:02;3.90;95.70
43673;DHT22;41723;49.326;8.430;2023-03-01T09:33:28;4.00;95.20
43673;DHT22;41723;49.326;8.430;2023-03-01T09:36:00;3.90;95.40
43673;DHT22;41723;49.326;8.430;2023-03-01T09:38:26;4.10;95.60
43673;DHT22;41723;49.326;8.430;2023-03-01T09:40:52;4.30;95.40
43673;DHT22;41723;49.326;8.430;2023-03-01T09:45:43;4.20;95.20
43673;DHT22;41723;49.326;8.430;2023-03-01T09:48:18;4.30;95.70
43673;DHT22;41723;49.326;8.430;2023-03-01T09:50:44;4.40;95.20
43673;DHT22;41723;49.326;8.430;2023-03-01T09:53:22;4.40;95.10
43673;DHT22;41723;49.326;8.430;2023-03-01T10:00:49;4.50;94.60
43673;DHT22;41723;49.326;8.430;2023-03-01T10:03:28;4.70;94.30
43673;DHT22;41723;49.326;8.430;2023-03-01T10:08:40;4.80;94.10
43673;DHT22;41723;49.326;8.430;2023-03-01T10:11:16;4.90;94.20
43673;DHT22;41723;49.326;8.430;2023-03-01T10:13:48;5.00;94.10
43673;DHT22;41723;49.326;8.430;2023-03-01T10:16:21;5.10;93.90
43673;DHT22;41723;49.326;8.430;2023-03-01T10:18:47;5.30;93.80
43673;DHT22;41723;49.326;8.430;2023-03-01T10:21:17;5.20;93.40
43673;DHT22;41723;49.326;8.430;2023-03-01T10:23:43;5.10;93.40
43673;DHT22;41723;49.326;8.430;2023-03-01T10:26:18;5.00;93.70
43673;DHT22;41723;49.326;8.430;2023-03-01T10:29:04;5.10;93.50
43673;DHT22;41723;49.326;8.430;2023-03-01T10:31:41;5.10;93.80
43673;DHT22;41723;49.326;8.430;2023-03-01T10:34:12;5.30;93.50
43673;DHT22;41723;49.326;8.430;2023-03-01T10:36:39;5.40;93.00
43673;DHT22;41723;49.326;8.430;2023-03-01T10:39:11;5.50;93.10
43673;DHT22;41723;49.326;8.430;2023-03-01T10:41:37;5.50;92.90
43673;DHT22;41723;49.326;8.430;2023-03-01T10:44:10;5.50;93.00
43673;DHT22;41723;49.326;8.430;2023-03-01T10:46:59;5.50;92.80
43673;DHT22;41723;49.326;8.430;2023-03-01T10:49:25;5.70;92.90
43673;DHT22;41723;49.326;8.430;2023-03-01T10:51:52;5.70;92.60
43673;DHT22;41723;49.326;8.430;2023-03-01T10:54:25;5.80;92.80
43673;DHT22;41723;49.326;8.430;2023-03-01T10:56:54;5.90;92.70
43673;DHT22;41723;49.326;8.430;2023-03-01T11:04:36;6.00;92.40
43673;DHT22;41723;49.326;8.430;2023-03-01T11:07:02;6.10;92.30
43673;DHT22;41723;49.326;8.430;2023-03-01T11:09:32;6.30;92.20
43673;DHT22;41723;49.326;8.430;2023-03-01T11:12:03;6.50;91.70
43673;DHT22;41723;49.326;8.430;2023-03-01T11:14:31;6.50;91.80
43673;DHT22;41723;49.326;8.430;2023-03-01T11:17:02;6.60;92.00
43673;DHT22;41723;49.326;8.430;2023-03-01T11:19:28;6.80;91.20
43673;DHT22;41723;49.326;8.430;2023-03-01T11:24:20;6.80;91.20
43673;DHT22;41723;49.326;8.430;2023-03-01T11:26:50;7.00;91.10
43673;DHT22;41723;49.326;8.430;2023-03-01T11:29:35;6.70;91.20
43673;DHT22;41723;49.326;8.430;2023-03-01T11:32:02;6.80;91.80
43673;DHT22;41723;49.326;8.430;2023-03-01T11:34:38;7.20;91.20
43673;DHT22;41723;49.326;8.430;2023-03-01T11:37:09;7.00;90.70
43673;DHT22;41723;49.326;8.430;2023-03-01T11:39:37;7.20;91.30
43673;DHT22;41723;49.326;8.430;2023-03-01T11:42:15;7.50;90.60
43673;DHT22;41723;49.326;8.430;2023-03-01T11:44:43;7.40;90.40
43673;DHT22;41723;49.326;8.430;2023-03-01T11:47:33;7.40;90.30
43673;DHT22;41723;49.326;8.430;2023-03-01T11:50:14;7.50;90.90
43673;DHT22;41723;49.326;8.430;2023-03-01T11:55:26;7.60;89.90
43673;DHT22;41723;49.326;8.430;2023-03-01T12:00:37;7.70;90.10
43673;DHT22;41723;49.326;8.430;2023-03-01T12:03:13;7.50;89.80
43673;DHT22;41723;49.326;8.430;2023-03-01T12:08:42;7.70;89.70
43673;DHT22;41723;49.326;8.430;2023-03-01T12:11:21;7.90;89.10
43673;DHT22;41723;49.326;8.430;2023-03-01T12:17:07;8.20;88.80
43673;DHT22;41723;49.326;8.430;2023-03-01T12:19:31;8.00;88.70
43673;DHT22;41723;49.326;8.430;2023-03-01T12:24:28;8.10;89.00
43673;DHT22;41723;49.326;8.430;2023-03-01T12:29:51;8.10;88.90
43673;DHT22;41723;49.326;8.430;2023-03-01T12:34:54;8.10;89.00
43673;DHT22;41723;49.326;8.430;2023-03-01T12:37:22;8.00;89.10
43673;DHT22;41723;49.326;8.430;2023-03-01T12:39:53;8.20;88.70
43673;DHT22;41723;49.326;8.430;2023-03-01T12:44:56;8.50;88.40
43673;DHT22;41723;49.326;8.430;2023-03-01T12:50:04;8.60;87.90
43673;DHT22;41723;49.326;8.430;2023-03-01T12:52:39;8.30;88.20
43673;DHT22;41723;49.326;8.430;2023-03-01T12:55:09;8.40;88.40
43673;DHT22;41723;49.326;8.430;2023-03-01T12:57:46;8.50;88.30
43673;DHT22;41723;49.326;8.430;2023-03-01T13:00:23;8.70;88.30
43673;DHT22;41723;49.326;8.430;2023-03-01T13:02:58;8.80;88.20
43673;DHT22;41723;49.326;8.430;2023-03-01T13:08:00;8.70;88.10
43673;DHT22;41723;49.326;8.430;2023-03-01T13:10:29;8.80;87.30
43673;DHT22;41723;49.326;8.430;2023-03-01T13:20:15;8.80;86.60
43673;DHT22;41723;49.326;8.430;2023-03-01T13:22:42;8.90;87.00
43673;DHT22;41723;49.326;8.430;2023-03-01T13:25:18;8.90;86.80
43673;DHT22;41723;49.326;8.430;2023-03-01T13:27:46;8.90;86.60
43673;DHT22;41723;49.326;8.430;2023-03-01T13:33:26;8.50;87.70
43673;DHT22;41723;49.326;8.430;2023-03-01T13:35:42;8.50;87.80
43673;DHT22;41723;49.326;8.430;2023-03-01T13:43:32;8.50;87.80
43673;DHT22;41723;49.326;8.430;2023-03-01T13:45:58;8.50;87.70
43673;DHT22;41723;49.326;8.430;2023-03-01T13:48:28;8.60;87.60
43673;DHT22;41723;49.326;8.430;2023-03-01T13:50:55;8.50;88.10
43673;DHT22;41723;49.326;8.430;2023-03-01T13:53:24;8.60;87.20
43673;DHT22;41723;49.326;8.430;2023-03-01T13:55:52;8.70;87.50
43673;DHT22;41723;49.326;8.430;2023-03-01T13:58:30;8.80;87.80
43673;DHT22;41723;49.326;8.430;2023-03-01T14:01:00;8.60;87.40
43673;DHT22;41723;49.326;8.430;2023-03-01T14:03:27;8.60;87.90
43673;DHT22;41723;49.326;8.430;2023-03-01T14:08:26;8.40;87.80
43673;DHT22;41723;49.326;8.430;2023-03-01T14:14:06;8.60;87.20
43673;DHT22;41723;49.326;8.430;2023-03-01T14:19:19;8.90;87.40
43673;DHT22;41723;49.326;8.430;2023-03-01T14:21:46;8.90;86.10
43673;DHT22;41723;49.326;8.430;2023-03-01T14:24:20;9.00;87.10
43673;DHT22;41723;49.326;8.430;2023-03-01T14:26:46;9.00;86.50
43673;DHT22;41723;49.326;8.430;2023-03-01T14:29:25;8.90;86.40
43673;DHT22;41723;49.326;8.430;2023-03-01T14:31:51;9.00;86.00
43673;DHT22;41723;49.326;8.430;2023-03-01T14:34:20;8.80;86.20
43673;DHT22;41723;49.326;8.430;2023-03-01T14:36:46;8.80;85.90
43673;DHT22;41723;49.326;8.430;2023-03-01T14:39:19;8.70;86.50
43673;DHT22;41723;49.326;8.430;2023-03-01T14:41:45;8.70;86.80
43673;DHT22;41723;49.326;8.430;2023-03-01T14:44:15;8.80;86.60
43673;DHT22;41723;49.326;8.430;2023-03-01T14:46:43;8.80;86.30
43673;DHT22;41723;49.326;8.430;2023-03-01T14:51:38;8.80;86.00
43673;DHT22;41723;49.326;8.430;2023-03-01T14:54:50;8.80;86.70
43673;DHT22;41723;49.326;8.430;2023-03-01T14:56:51;8.80;86.50
43673;DHT22;41723;49.326;8.430;2023-03-01T14:59:18;8.90;86.10
43673;DHT22;41723;49.326;8.430;2023-03-01T15:01:46;8.80;86.70
43673;DHT22;41723;49.326;8.430;2023-03-01T15:04:12;8.90;86.20
43673;DHT22;41723;49.326;8.430;2023-03-01T15:06:39;8.80;86.60
43673;DHT22;41723;49.326;8.430;2023-03-01T15:09:04;8.70;86.00
43673;DHT22;41723;49.326;8.430;2023-03-01T15:11:31;8.70;86.20
43673;DHT22;41723;49.326;8.430;2023-03-01T15:13:57;8.70;86.50
43673;DHT22;41723;49.326;8.430;2023-03-01T15:16:24;8.70;86.60
43673;DHT22;41723;49.326;8.430;2023-03-01T15:18:52;8.70;86.80
43673;DHT22;41723;49.326;8.430;2023-03-01T15:21:21;8.70;86.60
43673;DHT22;41723;49.326;8.430;2023-03-01T15:23:53;8.70;87.20
43673;DHT22;41723;49.326;8.430;2023-03-01T15:28:52;8.70;86.90
43673;DHT22;41723;49.326;8.430;2023-03-01T15:31:23;8.60;86.70
43673;DHT22;41723;49.326;8.430;2023-03-01T15:33:49;8.60;87.20
43673;DHT22;41723;49.326;8.430;2023-03-01T15:38:59;8.60;87.40
43673;DHT22;41723;49.326;8.430;2023-03-01T15:41:29;8.60;88.10
43673;DHT22;41723;49.326;8.430;2023-03-01T15:43:58;8.70;88.30
43673;DHT22;41723;49.326;8.430;2023-03-01T15:46:26;8.70;87.40
43673;DHT22;41723;49.326;8.430;2023-03-01T15:48:54;8.70;87.90
43673;DHT22;41723;49.326;8.430;2023-03-01T15:51:23;8.70;88.40
43673;DHT22;41723;49.326;8.430;2023-03-01T15:53:52;8.80;87.40
43673;DHT22;41723;49.326;8.430;2023-03-01T15:56:18;8.80;86.50
43673;DHT22;41723;49.326;8.430;2023-03-01T15:58:43;8.90;86.80
43673;DHT22;41723;49.326;8.430;2023-03-01T16:01:16;8.80;86.10
43673;DHT22;41723;49.326;8.430;2023-03-01T16:03:42;8.80;86.60
43673;DHT22;41723;49.326;8.430;2023-03-01T16:06:11;8.90;86.70
43673;DHT22;41723;49.326;8.430;2023-03-01T16:08:37;8.90;86.90
43673;DHT22;41723;49.326;8.430;2023-03-01T16:11:04;8.90;86.50
43673;DHT22;41723;49.326;8.430;2023-03-01T16:13:31;8.90;87.10
43673;DHT22;41723;49.326;8.430;2023-03-01T16:15:57;8.90;87.90
43673;DHT22;41723;49.326;8.430;2023-03-01T16:18:23;8.90;87.20
43673;DHT22;41723;49.326;8.430;2023-03-01T16:20:48;8.80;87.30
43673;DHT22;41723;49.326;8.430;2023-03-01T16:23:14;8.80;87.30
43673;DHT22;41723;49.326;8.430;2023-03-01T16:25:40;8.80;86.90
43673;DHT22;41723;49.326;8.430;2023-03-01T16:28:06;8.70;87.10
43673;DHT22;41723;49.326;8.430;2023-03-01T16:30:34;8.70;87.20
43673;DHT22;41723;49.326;8.430;2023-03-01T16:33:00;8.60;87.20
43673;DHT22;41723;49.326;8.430;2023-03-01T16:35:31;8.60;87.30
43673;DHT22;41723;49.326;8.430;2023-03-01T16:37:58;8.50;87.30
43673;DHT22;41723;49.326;8.430;2023-03-01T16:40:26;8.50;88.20
43673;DHT22;41723;49.326;8.430;2023-03-01T16:42:52;8.50;87.00
43673;DHT22;41723;49.326;8.430;2023-03-01T16:45:18;8.50;87.70
43673;DHT22;41723;49.326;8.430;2023-03-01T16:47:44;8.50;87.30
43673;DHT22;41723;49.326;8.430;2023-03-01T16:50:09;8.40;87.10
43673;DHT22;41723;49.326;8.430;2023-03-01T16:52:35;8.50;88.10
43673;DHT22;41723;49.326;8.430;2023-03-01T16:55:04;8.50;87.40
43673;DHT22;41723;49.326;8.430;2023-03-01T16:57:30;8.40;87.10
43673;DHT22;41723;49.326;8.430;2023-03-01T16:59:56;8.40;87.10
43673;DHT22;41723;49.326;8.430;2023-03-01T17:02:22;8.40;87.80
43673;DHT22;41723;49.326;8.430;2023-03-01T17:04:54;8.30;87.60
43673;DHT22;41723;49.326;8.430;2023-03-01T17:07:20;8.20;87.50
43673;DHT22;41723;49.326;8.430;2023-03-01T17:09:45;8.20;88.50
43673;DHT22;41723;49.326;8.430;2023-03-01T17:12:11;8.20;87.90
43673;DHT22;41723;49.326;8.430;2023-03-01T17:14:37;8.20;88.30
43673;DHT22;41723;49.326;8.430;2023-03-01T17:17:04;8.10;88.60
43673;DHT22;41723;49.326;8.430;2023-03-01T17:19:29;8.00;89.00